createdAt,value
2018-03-27T00:02:05.379Z,5.10
2018-03-27T00:04:31.782Z,5.27
2018-03-27T00:06:58.361Z,5.83
2018-03-27T00:09:24.721Z,5.03
2018-03-27T00:11:51.087Z,5.50
2018-03-27T00:14:23.022Z,5.00
2018-03-27T00:16:49.630Z,5.17
2018-03-27T00:19:16.042Z,5.37
2018-03-27T00:21:42.472Z,5.07
2018-03-27T00:24:08.847Z,5.10
2018-03-27T00:26:35.186Z,5.03
2018-03-27T00:29:01.519Z,5.63
2018-03-27T00:31:27.927Z,5.20
2018-03-27T00:33:54.278Z,4.40
2018-03-27T00:36:20.681Z,5.10
2018-03-27T00:38:47.006Z,5.87
2018-03-27T00:41:13.394Z,5.10
2018-03-27T00:43:39.848Z,5.00
2018-03-27T00:46:06.182Z,4.60
2018-03-27T00:48:32.572Z,5.13
2018-03-27T00:50:58.926Z,5.07
2018-03-27T00:53:25.270Z,4.90
2018-03-27T00:55:51.740Z,4.40
2018-03-27T00:58:18.166Z,5.10
2018-03-27T01:00:44.887Z,5.07
2018-03-27T01:03:11.654Z,5.20
2018-03-27T01:05:38.110Z,5.60
2018-03-27T01:10:44.679Z,4.87
2018-03-27T01:13:11.076Z,5.90
2018-03-27T01:15:37.422Z,5.60
2018-03-27T01:18:03.932Z,5.87
2018-03-27T01:20:30.310Z,4.83
2018-03-27T01:22:56.777Z,5.47
2018-03-27T01:25:23.149Z,5.63
2018-03-27T01:27:49.582Z,5.93
2018-03-27T01:30:16.027Z,5.20
2018-03-27T01:32:42.560Z,4.80
2018-03-27T01:35:08.949Z,5.03
2018-03-27T01:37:35.296Z,4.90
2018-03-27T01:40:01.686Z,4.70
2018-03-27T01:42:28.065Z,4.40
2018-03-27T01:44:54.454Z,5.20
2018-03-27T01:47:20.823Z,5.10
2018-03-27T01:49:47.216Z,5.30
2018-03-27T01:52:13.547Z,5.77
2018-03-27T01:54:39.979Z,5.10
2018-03-27T01:57:06.342Z,5.27
2018-03-27T01:59:32.694Z,6.40
2018-03-27T02:01:59.078Z,5.13
2018-03-27T02:04:25.407Z,4.60
2018-03-27T02:06:51.788Z,5.47
2018-03-27T02:09:18.155Z,5.63
2018-03-27T02:11:44.522Z,4.70
2018-03-27T02:14:10.859Z,4.67
2018-03-27T02:16:37.214Z,4.87
2018-03-27T02:19:03.633Z,5.10
2018-03-27T02:21:29.996Z,5.57
2018-03-27T02:23:56.333Z,5.07
2018-03-27T02:26:22.666Z,4.20
2018-03-27T02:28:48.998Z,4.50
2018-03-27T02:31:15.405Z,5.00
2018-03-27T02:33:41.771Z,4.87
2018-03-27T02:36:08.159Z,5.20
2018-03-27T02:38:34.489Z,5.20
2018-03-27T02:41:00.877Z,5.07
2018-03-27T02:43:27.284Z,5.20
2018-03-27T02:45:53.612Z,5.30
2018-03-27T02:48:19.942Z,5.10
2018-03-27T02:50:46.284Z,4.90
2018-03-27T02:53:12.621Z,5.07
2018-03-27T02:55:39.037Z,4.93
2018-03-27T02:58:05.383Z,5.33
2018-03-27T03:00:31.759Z,4.73
2018-03-27T03:02:58.158Z,4.70
2018-03-27T03:05:24.541Z,4.80
2018-03-27T03:07:50.888Z,4.60
2018-03-27T03:10:17.278Z,4.90
2018-03-27T03:12:43.651Z,4.63
2018-03-27T03:15:10.018Z,4.50
2018-03-27T03:17:36.443Z,5.50
2018-03-27T03:20:02.777Z,4.90
2018-03-27T03:22:29.174Z,5.30
2018-03-27T03:24:55.505Z,4.90
2018-03-27T03:27:21.864Z,4.97
2018-03-27T03:29:48.199Z,4.27
2018-03-27T03:32:14.525Z,5.10
2018-03-27T03:34:40.847Z,5.00
2018-03-27T03:37:07.174Z,6.10
2018-03-27T03:39:33.523Z,5.10
2018-03-27T03:41:59.920Z,5.20
2018-03-27T03:44:26.274Z,6.10
2018-03-27T03:46:52.594Z,5.23
2018-03-27T03:49:18.950Z,4.57
2018-03-27T03:51:45.266Z,5.10
2018-03-27T03:54:11.634Z,6.00
2018-03-27T03:56:37.967Z,6.00
2018-03-27T03:59:04.442Z,5.53
2018-03-27T04:01:30.766Z,6.87
2018-03-27T04:03:57.149Z,6.43
2018-03-27T04:06:23.517Z,6.40
2018-03-27T04:08:49.850Z,6.30
2018-03-27T04:11:16.222Z,6.43
2018-03-27T04:13:42.554Z,6.43
2018-03-27T04:16:08.886Z,6.23
2018-03-27T04:18:35.215Z,7.00
2018-03-27T04:21:01.588Z,6.10
2018-03-27T04:23:27.960Z,6.60
2018-03-27T04:25:54.285Z,5.93
2018-03-27T04:28:20.672Z,5.97
2018-03-27T04:30:47.005Z,6.23
2018-03-27T04:33:13.356Z,6.07
2018-03-27T04:35:39.786Z,5.80
2018-03-27T04:38:06.113Z,5.97
2018-03-27T04:40:32.490Z,6.17
2018-03-27T04:42:58.828Z,5.40
2018-03-27T04:45:25.150Z,6.00
2018-03-27T04:47:51.475Z,5.77
2018-03-27T04:50:17.865Z,5.53
2018-03-27T04:52:44.204Z,6.07
2018-03-27T04:55:10.594Z,5.20
2018-03-27T04:57:36.929Z,4.80
2018-03-27T05:00:03.254Z,5.10
2018-03-27T05:02:29.597Z,5.10
2018-03-27T05:04:55.949Z,5.10
2018-03-27T05:07:22.302Z,5.43
2018-03-27T05:09:48.688Z,5.10
2018-03-27T05:12:15.152Z,4.63
2018-03-27T05:14:41.495Z,5.27
2018-03-27T05:17:07.855Z,4.77
2018-03-27T05:19:34.185Z,4.33
2018-03-27T05:22:00.603Z,4.30
2018-03-27T05:24:26.974Z,4.80
2018-03-27T05:26:53.486Z,5.10
2018-03-27T05:29:19.879Z,4.00
2018-03-27T05:31:46.451Z,4.50
2018-03-27T05:34:12.819Z,4.40
2018-03-27T05:36:39.224Z,3.50
2018-03-27T05:39:05.622Z,4.50
2018-03-27T05:41:31.976Z,4.70
2018-03-27T05:43:58.434Z,4.37
2018-03-27T05:46:24.816Z,4.40
2018-03-27T05:48:51.196Z,4.10
2018-03-27T05:51:18.156Z,5.07
2018-03-27T05:53:45.112Z,4.23
2018-03-27T05:56:11.466Z,3.87
2018-03-27T05:58:38.005Z,4.13
2018-03-27T06:01:04.818Z,3.50
2018-03-27T06:03:31.161Z,4.00
2018-03-27T06:05:57.534Z,3.63
2018-03-27T06:08:24.245Z,3.50
2018-03-27T06:10:50.616Z,3.53
2018-03-27T06:15:39.699Z,3.20
2018-03-27T06:18:06.084Z,3.37
2018-03-27T06:20:32.820Z,3.80
2018-03-27T06:22:59.180Z,3.37
2018-03-27T06:25:25.875Z,3.40
2018-03-27T06:27:52.360Z,3.20
2018-03-27T06:30:20.978Z,3.27
2018-03-27T06:32:48.300Z,3.20
2018-03-27T06:35:14.902Z,3.53
2018-03-27T06:37:41.485Z,2.90
2018-03-27T06:40:07.897Z,3.30
2018-03-27T06:42:34.240Z,3.00
2018-03-27T06:45:00.715Z,3.20
2018-03-27T06:47:27.445Z,3.17
2018-03-27T06:49:53.908Z,3.10
2018-03-27T06:52:20.807Z,3.07
2018-03-27T06:54:47.589Z,3.30
2018-03-27T06:57:14.817Z,3.07
2018-03-27T06:59:41.370Z,3.43
2018-03-27T07:02:07.814Z,2.90
2018-03-27T07:04:34.617Z,3.07
2018-03-27T07:07:01.321Z,3.83
2018-03-27T07:09:28.641Z,2.63
2018-03-27T07:11:55.108Z,3.57
2018-03-27T07:14:21.624Z,3.30
2018-03-27T07:16:48.118Z,3.00
2018-03-27T07:19:14.561Z,3.70
2018-03-27T07:21:41.101Z,3.33
2018-03-27T07:24:07.677Z,3.10
2018-03-27T07:26:34.114Z,3.50
2018-03-27T07:29:00.466Z,2.97
2018-03-27T07:31:26.970Z,3.47
2018-03-27T07:33:53.511Z,3.43
2018-03-27T07:37:54.245Z,2.73
2018-03-27T07:40:20.604Z,3.03
2018-03-27T07:42:47.246Z,4.20
2018-03-27T07:45:13.876Z,3.00
2018-03-27T07:47:40.313Z,3.10
2018-03-27T07:50:06.715Z,3.13
2018-03-27T07:52:33.220Z,3.30
2018-03-27T07:54:59.654Z,4.03
2018-03-27T07:57:26.192Z,2.90
2018-03-27T07:59:52.658Z,3.23
2018-03-27T08:02:19.155Z,2.90
2018-03-27T08:04:45.589Z,3.20
2018-03-27T08:07:12.006Z,3.10
2018-03-27T08:09:38.419Z,3.60
2018-03-27T08:12:04.754Z,3.63
2018-03-27T08:14:31.147Z,3.20
2018-03-27T08:16:57.638Z,3.20
2018-03-27T08:19:24.073Z,3.20
2018-03-27T08:21:50.450Z,3.07
2018-03-27T08:24:16.968Z,3.30
2018-03-27T08:26:43.632Z,2.87
2018-03-27T08:29:10.417Z,3.50
2018-03-27T08:31:36.768Z,3.23
2018-03-27T08:34:03.280Z,3.30
2018-03-27T08:36:29.709Z,3.10
2018-03-27T08:38:56.369Z,2.47
2018-03-27T08:41:22.828Z,3.33
2018-03-27T08:43:49.849Z,3.73
2018-03-27T08:46:16.242Z,3.30
2018-03-27T08:48:44.062Z,2.90
2018-03-27T08:51:10.732Z,3.17
2018-03-27T08:53:37.224Z,3.70
2018-03-27T08:56:03.770Z,2.90
2018-03-27T08:58:30.506Z,3.30
2018-03-27T09:00:57.054Z,3.23
2018-03-27T09:03:23.560Z,3.23
2018-03-27T09:05:50.030Z,3.03
2018-03-27T09:08:16.554Z,2.97
2018-03-27T09:10:42.918Z,3.00
2018-03-27T09:13:09.708Z,2.93
2018-03-27T09:15:37.094Z,3.10
2018-03-27T09:18:03.506Z,3.20
2018-03-27T09:20:30.324Z,2.53
2018-03-27T09:22:56.929Z,2.83
2018-03-27T09:25:23.593Z,2.97
2018-03-27T09:27:50.423Z,2.60
2018-03-27T09:30:17.028Z,3.30
2018-03-27T09:32:43.657Z,2.73
2018-03-27T09:35:10.323Z,3.00
2018-03-27T09:37:36.731Z,3.43
2018-03-27T09:40:05.267Z,2.67
2018-03-27T09:42:32.064Z,3.10
2018-03-27T09:44:59.046Z,3.13
2018-03-27T09:47:25.998Z,3.10
2018-03-27T09:49:52.812Z,2.97
2018-03-27T09:52:19.666Z,3.37
2018-03-27T09:54:46.227Z,2.77
2018-03-27T09:57:12.920Z,3.17
2018-03-27T09:59:39.638Z,3.33
2018-03-27T10:02:06.487Z,2.97
2018-03-27T10:04:33.984Z,2.97
2018-03-27T10:07:00.395Z,3.13
2018-03-27T10:09:28.057Z,2.90
2018-03-27T10:11:54.525Z,3.50
2018-03-27T10:14:22.035Z,3.30
2018-03-27T10:16:48.845Z,4.20
2018-03-27T10:19:15.730Z,4.70
2018-03-27T10:21:42.226Z,2.90
2018-03-27T10:24:08.720Z,3.63
2018-03-27T10:26:35.272Z,3.80
2018-03-27T10:29:02.334Z,3.43
2018-03-27T10:31:29.330Z,3.73
2018-03-27T10:33:57.437Z,3.53
2018-03-27T10:36:47.752Z,2.93
2018-03-27T10:39:17.795Z,3.40
2018-03-27T10:41:44.963Z,3.73
2018-03-27T10:44:11.701Z,3.60
2018-03-27T10:49:32.323Z,3.80
2018-03-27T10:51:58.988Z,3.60
2018-03-27T10:54:25.507Z,3.17
2018-03-27T10:56:52.541Z,3.77
2018-03-27T10:59:19.381Z,3.50
2018-03-27T11:01:46.812Z,3.90
2018-03-27T11:04:13.589Z,3.67
2018-03-27T11:06:40.417Z,3.50
2018-03-27T11:09:07.290Z,3.50
2018-03-27T11:11:34.101Z,3.33
2018-03-27T11:14:01.864Z,3.73
2018-03-27T11:16:28.678Z,3.70
2018-03-27T11:18:56.428Z,3.83
2018-03-27T11:21:22.959Z,3.90
2018-03-27T11:23:49.718Z,3.40
2018-03-27T11:26:17.411Z,3.20
2018-03-27T11:28:44.475Z,3.53
2018-03-27T11:31:10.937Z,3.63
2018-03-27T11:33:37.414Z,3.97
2018-03-27T11:36:04.036Z,4.20
2018-03-27T11:38:30.890Z,3.47
2018-03-27T11:40:57.663Z,3.73
2018-03-27T11:43:24.476Z,3.67
2018-03-27T11:45:51.497Z,3.80
2018-03-27T11:48:18.140Z,3.83
2018-03-27T11:50:44.614Z,4.03
2018-03-27T11:53:12.247Z,4.00
2018-03-27T11:55:38.991Z,3.80
2018-03-27T11:58:05.485Z,4.53
2018-03-27T12:00:33.307Z,4.00
2018-03-27T12:02:59.834Z,4.17
2018-03-27T12:05:26.414Z,4.10
2018-03-27T12:07:53.046Z,5.07
2018-03-27T12:10:19.414Z,4.30
2018-03-27T12:12:45.787Z,4.70
2018-03-27T12:15:12.232Z,4.37
2018-03-27T12:17:38.763Z,4.73
2018-03-27T12:20:05.310Z,4.27
2018-03-27T12:22:31.826Z,4.60
2018-03-27T12:25:00.312Z,4.60
2018-03-27T12:27:26.944Z,5.10
2018-03-27T12:29:53.401Z,4.70
2018-03-27T12:32:19.940Z,4.63
2018-03-27T12:34:48.078Z,5.17
2018-03-27T12:37:14.770Z,4.27
2018-03-27T12:39:41.509Z,4.60
2018-03-27T12:42:07.890Z,4.47
2018-03-27T12:44:35.848Z,4.60
2018-03-27T12:47:02.258Z,4.60
2018-03-27T12:49:28.918Z,5.63
2018-03-27T12:51:56.614Z,5.07
2018-03-27T12:54:23.114Z,5.37
2018-03-27T12:56:53.063Z,4.87
2018-03-27T12:59:19.596Z,5.00
2018-03-27T13:01:48.374Z,5.07
2018-03-27T13:04:15.393Z,5.27
2018-03-27T13:06:41.833Z,5.20
2018-03-27T13:09:08.243Z,5.57
2018-03-27T13:11:34.842Z,5.70
2018-03-27T13:14:01.354Z,5.03
2018-03-27T13:16:27.806Z,5.37
2018-03-27T13:18:54.299Z,5.43
2018-03-27T13:21:20.841Z,5.70
2018-03-27T13:23:47.462Z,5.60
2018-03-27T13:26:14.819Z,5.60
2018-03-27T13:28:42.443Z,5.80
2018-03-27T13:31:09.249Z,6.27
2018-03-27T13:33:37.225Z,5.90
2018-03-27T13:36:03.681Z,6.20
2018-03-27T13:38:30.672Z,6.27
2018-03-27T13:40:57.040Z,5.70
2018-03-27T13:43:23.560Z,6.23
2018-03-27T13:45:50.018Z,6.50
2018-03-27T13:48:16.359Z,6.43
2018-03-27T13:50:42.791Z,7.10
2018-03-27T13:53:09.257Z,5.73
2018-03-27T13:55:35.678Z,5.73
2018-03-27T13:58:02.021Z,6.73
2018-03-27T14:00:28.427Z,5.93
2018-03-27T14:02:54.783Z,6.47
2018-03-27T14:05:21.123Z,7.00
2018-03-27T14:07:47.502Z,7.00
2018-03-27T14:10:13.935Z,6.40
2018-03-27T14:12:40.301Z,6.90
2018-03-27T14:15:06.636Z,7.20
2018-03-27T14:17:33.649Z,6.63
2018-03-27T14:20:00.092Z,6.50
2018-03-27T14:22:27.043Z,6.70
2018-03-27T14:24:53.470Z,6.43
2018-03-27T14:27:19.883Z,7.47
2018-03-27T14:29:46.225Z,7.97
2018-03-27T14:32:12.601Z,6.80
2018-03-27T14:34:38.943Z,6.60
2018-03-27T14:37:05.311Z,6.20
2018-03-27T14:39:31.698Z,6.00
2018-03-27T14:41:58.030Z,7.27
2018-03-27T14:44:24.679Z,6.97
2018-03-27T14:46:51.054Z,6.40
2018-03-27T14:49:17.387Z,6.03
2018-03-27T14:51:43.721Z,6.90
2018-03-27T14:54:10.072Z,6.93
2018-03-27T14:56:36.575Z,6.57
2018-03-27T14:59:02.898Z,7.03
2018-03-27T15:01:29.231Z,6.73
2018-03-27T15:03:55.597Z,7.10
2018-03-27T15:06:21.991Z,6.63
2018-03-27T15:08:48.376Z,6.90
2018-03-27T15:11:14.779Z,6.63
2018-03-27T15:13:41.201Z,6.33
2018-03-27T15:16:07.529Z,6.60
2018-03-27T15:18:33.856Z,7.20
2018-03-27T15:21:00.220Z,6.80
2018-03-27T15:23:26.549Z,6.80
2018-03-27T15:25:52.898Z,6.70
2018-03-27T15:28:19.221Z,7.90
2018-03-27T15:30:45.677Z,6.40
2018-03-27T15:33:12.015Z,7.13
2018-03-27T15:35:38.381Z,6.87
2018-03-27T15:38:04.775Z,7.43
2018-03-27T15:40:31.167Z,6.17
2018-03-27T15:42:57.558Z,7.33
2018-03-27T15:45:23.874Z,7.23
2018-03-27T15:47:50.221Z,7.93
2018-03-27T15:50:16.562Z,7.40
2018-03-27T15:52:42.914Z,6.90
2018-03-27T15:55:09.339Z,6.67
2018-03-27T15:57:35.706Z,7.20
2018-03-27T16:00:02.078Z,6.40
2018-03-27T16:02:28.396Z,7.27
2018-03-27T16:04:54.726Z,6.97
2018-03-27T16:07:21.087Z,6.87
2018-03-27T16:09:47.403Z,6.93
2018-03-27T16:12:13.752Z,6.57
2018-03-27T16:14:40.084Z,7.03
2018-03-27T16:17:06.408Z,7.40
2018-03-27T16:19:32.787Z,6.60
2018-03-27T16:21:59.125Z,6.73
2018-03-27T16:24:25.443Z,7.00
2018-03-27T16:26:51.816Z,6.90
2018-03-27T16:29:18.247Z,6.67
2018-03-27T16:31:44.639Z,6.57
2018-03-27T16:34:11.030Z,6.57
2018-03-27T16:36:37.312Z,6.50
2018-03-27T16:39:03.688Z,7.00
2018-03-27T16:41:30.108Z,7.13
2018-03-27T16:43:56.545Z,6.17
2018-03-27T16:46:22.896Z,7.10
2018-03-27T16:48:49.250Z,6.70
2018-03-27T16:51:15.616Z,6.43
2018-03-27T16:53:42.211Z,6.80
2018-03-27T16:56:08.579Z,6.93
2018-03-27T16:58:35.005Z,6.23
2018-03-27T17:01:01.336Z,6.80
2018-03-27T17:03:27.676Z,7.10
2018-03-27T17:05:54.014Z,6.30
2018-03-27T17:08:20.343Z,6.50
2018-03-27T17:10:46.680Z,6.30
2018-03-27T17:13:13.005Z,6.30
2018-03-27T17:15:39.329Z,6.33
2018-03-27T17:18:05.778Z,6.60
2018-03-27T17:20:32.103Z,7.30
2018-03-27T17:22:58.503Z,6.60
2018-03-27T17:25:24.899Z,6.37
2018-03-27T17:27:51.254Z,6.37
2018-03-27T17:30:17.582Z,6.67
2018-03-27T17:32:43.947Z,6.30
2018-03-27T17:35:10.277Z,6.43
2018-03-27T17:37:36.719Z,6.63
2018-03-27T17:40:03.082Z,6.03
2018-03-27T17:42:29.421Z,6.70
2018-03-27T17:44:55.737Z,5.90
2018-03-27T17:47:22.121Z,6.43
2018-03-27T17:49:48.459Z,7.03
2018-03-27T17:52:14.795Z,6.10
2018-03-27T17:54:41.302Z,6.60
2018-03-27T17:57:07.781Z,6.97
2018-03-27T17:59:34.099Z,6.57
2018-03-27T18:02:00.465Z,6.80
2018-03-27T18:04:26.882Z,6.50
2018-03-27T18:06:53.203Z,7.40
2018-03-27T18:09:19.530Z,6.57
2018-03-27T18:11:45.944Z,6.53
2018-03-27T18:14:12.329Z,6.30
2018-03-27T18:16:38.729Z,6.23
2018-03-27T18:19:05.138Z,6.03
2018-03-27T18:21:31.456Z,7.03
2018-03-27T18:23:58.019Z,7.10
2018-03-27T18:26:24.390Z,6.00
2018-03-27T18:28:50.768Z,6.93
2018-03-27T18:31:17.090Z,6.47
2018-03-27T18:33:43.458Z,5.97
2018-03-27T18:36:09.783Z,6.67
2018-03-27T18:38:36.230Z,7.53
2018-03-27T18:41:02.561Z,6.93
2018-03-27T18:43:28.959Z,7.40
2018-03-27T18:45:55.314Z,6.30
2018-03-27T18:48:21.763Z,7.60
2018-03-27T18:50:48.118Z,6.83
2018-03-27T18:53:14.534Z,6.67
2018-03-27T18:55:40.932Z,6.73
2018-03-27T18:58:07.257Z,7.23
2018-03-27T19:00:33.594Z,7.20
2018-03-27T19:03:00.031Z,6.77
2018-03-27T19:05:26.418Z,7.47
2018-03-27T19:07:52.754Z,7.07
2018-03-27T19:10:19.118Z,6.63
2018-03-27T19:12:45.464Z,7.23
2018-03-27T19:15:11.822Z,7.27
2018-03-27T19:17:38.203Z,7.40
2018-03-27T19:20:04.525Z,7.77
2018-03-27T19:22:30.842Z,7.87
2018-03-27T19:24:57.197Z,7.50
2018-03-27T19:27:23.516Z,7.40
2018-03-27T19:29:49.873Z,6.63
2018-03-27T19:32:16.234Z,7.43
2018-03-27T19:34:42.562Z,6.87
2018-03-27T19:37:08.886Z,7.50
2018-03-27T19:39:35.250Z,8.43
2018-03-27T19:42:01.564Z,8.80
2018-03-27T19:44:27.946Z,7.20
2018-03-27T19:46:54.273Z,7.47
2018-03-27T19:49:20.624Z,7.80
2018-03-27T19:51:46.981Z,8.47
2018-03-27T19:54:13.337Z,8.33
2018-03-27T19:56:39.698Z,8.20
2018-03-27T19:59:06.101Z,7.77
2018-03-27T20:01:32.467Z,8.80
2018-03-27T20:03:58.871Z,8.20
2018-03-27T20:06:25.277Z,8.40
2018-03-27T20:08:51.654Z,8.33
2018-03-27T20:11:18.033Z,8.13
2018-03-27T20:13:44.398Z,8.03
2018-03-27T20:16:10.732Z,8.80
2018-03-27T20:18:37.105Z,8.43
2018-03-27T20:21:03.477Z,8.60
2018-03-27T20:23:29.969Z,8.93
2018-03-27T20:25:56.399Z,9.13
2018-03-27T20:28:22.719Z,7.90
2018-03-27T20:30:49.115Z,8.70
2018-03-27T20:33:15.433Z,8.60
2018-03-27T20:35:41.766Z,8.10
2018-03-27T20:38:08.228Z,8.70
2018-03-27T20:40:34.518Z,8.90
2018-03-27T20:43:00.893Z,9.03
2018-03-27T20:45:27.327Z,8.50
2018-03-27T20:50:26.124Z,8.07
2018-03-27T20:52:52.486Z,8.80
2018-03-27T20:55:19.020Z,8.10
2018-03-27T20:57:45.339Z,9.20
2018-03-27T21:00:11.700Z,8.67
2018-03-27T21:02:38.132Z,9.53
2018-03-27T21:05:04.555Z,9.37
2018-03-27T21:07:30.904Z,8.60
2018-03-27T21:09:57.247Z,9.10
2018-03-27T21:12:23.573Z,8.83
2018-03-27T21:14:49.950Z,9.63
2018-03-27T21:17:16.335Z,8.90
2018-03-27T21:19:42.657Z,8.70
2018-03-27T21:22:09.069Z,8.90
2018-03-27T21:24:35.441Z,9.00
2018-03-27T21:27:01.753Z,8.80
2018-03-27T21:29:28.274Z,9.53
2018-03-27T21:31:54.618Z,9.50
2018-03-27T21:34:21.193Z,9.77
2018-03-27T21:36:47.655Z,9.20
2018-03-27T21:39:14.274Z,9.20
2018-03-27T21:41:42.644Z,9.50
2018-03-27T21:44:09.098Z,9.53
2018-03-27T21:46:35.473Z,9.07
2018-03-27T21:49:01.841Z,9.70
2018-03-27T21:51:28.252Z,9.30
2018-03-27T21:53:54.714Z,9.33
2018-03-27T21:56:21.145Z,9.30
2018-03-27T21:58:47.538Z,9.90
2018-03-27T22:01:14.009Z,10.33
2018-03-27T22:03:40.549Z,9.27
2018-03-27T22:06:06.909Z,10.07
2018-03-27T22:08:33.261Z,8.97
2018-03-27T22:10:59.667Z,9.87
2018-03-27T22:13:26.095Z,9.57
2018-03-27T22:15:52.413Z,9.00
2018-03-27T22:18:18.906Z,10.37
2018-03-27T22:20:45.338Z,9.37
2018-03-27T22:23:11.711Z,10.00
2018-03-27T22:25:38.087Z,9.17
2018-03-27T22:28:04.532Z,9.33
2018-03-27T22:30:30.859Z,9.90
2018-03-27T22:32:57.477Z,9.83
2018-03-27T22:35:23.857Z,9.53
2018-03-27T22:37:50.218Z,9.80
2018-03-27T22:40:16.707Z,9.53
2018-03-27T22:42:43.132Z,9.60
2018-03-27T22:45:09.497Z,9.43
2018-03-27T22:47:35.844Z,9.40
2018-03-27T22:50:02.226Z,9.10
2018-03-27T22:52:28.589Z,9.00
2018-03-27T22:54:54.995Z,9.50
2018-03-27T22:57:21.318Z,9.90
2018-03-27T22:59:47.687Z,9.87
2018-03-27T23:02:14.043Z,9.47
2018-03-27T23:04:40.408Z,9.50
2018-03-27T23:07:06.770Z,9.37
2018-03-27T23:09:33.089Z,9.53
2018-03-27T23:11:59.445Z,9.00
2018-03-27T23:14:25.998Z,9.20
2018-03-27T23:16:52.312Z,9.50
2018-03-27T23:19:18.645Z,9.93
2018-03-27T23:21:44.966Z,9.40
2018-03-27T23:24:11.451Z,9.80
2018-03-27T23:26:37.879Z,9.23
2018-03-27T23:29:04.343Z,9.17
2018-03-27T23:31:30.785Z,10.33
2018-03-27T23:33:57.203Z,9.80
2018-03-27T23:36:23.580Z,10.23
2018-03-27T23:38:50.010Z,9.97
2018-03-27T23:41:16.359Z,9.83
2018-03-27T23:43:42.700Z,9.73
2018-03-27T23:46:09.104Z,9.73
2018-03-27T23:48:35.428Z,10.33
2018-03-27T23:51:01.902Z,10.10
2018-03-27T23:53:28.244Z,9.83
2018-03-27T23:55:54.648Z,10.87
2018-03-27T23:58:21.121Z,8.90
